Time;durP1;ratioP1;P1;durP2;ratioP2;P2;SDS_P1;SDS_P2;PMS_P1;PMS_P2;Temp;Humidity;BMP_temperature;BMP_pressure;BME280_temperature;BME280_humidity;BME280_pressure;Samples;Min_cycle;Max_cycle;Signal;HPM_P1;HPM_P2
2022/09/29 00:00:28;;;;;;;2.20;2.10;;;;;;;;;;5017370;28;93189;-63
2022/09/29 00:02:55;;;;;;;2.35;2.25;;;;;;;;;;5015679;28;92499;-62
2022/09/29 00:05:21;;;;;;;2.45;2.25;;;;;;;;;;5017074;28;93133;-62
2022/09/29 00:07:48;;;;;;;3.45;2.55;;;;;;;;;;5017742;28;93254;-62
2022/09/29 00:10:14;;;;;;;2.25;2.15;;;;;;;;;;5016771;28;91760;-62
2022/09/29 00:12:40;;;;;;;2.45;2.30;;;;;;;;;;5017217;28;93083;-62
2022/09/29 00:15:07;;;;;;;2.78;2.28;;;;;;;;;;5016623;28;93228;-62
2022/09/29 00:17:33;;;;;;;2.20;2.10;;;;;;;;;;5014588;28;95263;-62
2022/09/29 00:20:00;;;;;;;2.20;2.10;;;;;;;;;;5020079;28;95538;-62
2022/09/29 00:22:26;;;;;;;2.63;2.42;;;;;;;;;;5016877;28;92380;-62
2022/09/29 00:24:52;;;;;;;2.13;2.03;;;;;;;;;;5023630;28;93626;-62
2022/09/29 00:27:19;;;;;;;1.92;1.83;;;;;;;;;;5036580;28;94405;-62
2022/09/29 00:29:45;;;;;;;2.30;2.20;;;;;;;;;;5037345;28;92448;-62
2022/09/29 00:32:12;;;;;;;2.50;2.30;;;;;;;;;;5035710;27;93066;-62
2022/09/29 00:34:38;;;;;;;2.15;2.05;;;;;;;;;;5037015;28;92698;-62
2022/09/29 00:37:05;;;;;;;4.07;2.30;;;;;;;;;;5036923;27;92689;-62
2022/09/29 00:39:31;;;;;;;2.22;2.10;;;;;;;;;;5038830;27;93060;-62
2022/09/29 00:41:57;;;;;;;2.13;2.03;;;;;;;;;;5022977;28;94923;-62
2022/09/29 00:44:23;;;;;;;2.10;2.00;;;;;;;;;;5036347;28;95562;-62
2022/09/29 00:46:53;;;;;;;2.38;2.20;;;;;;;;;;5035693;28;93896;-62
2022/09/29 00:49:22;;;;;;;2.30;2.20;;;;;;;;;;5036240;28;92471;-62
2022/09/29 00:52:11;;;;;;;2.20;2.10;;;;;;;;;;5026299;28;94677;-62
2022/09/29 00:54:40;;;;;;;2.25;2.05;;;;;;;;;;4988189;28;94483;-62
2022/09/29 00:57:07;;;;;;;2.03;1.85;;;;;;;;;;4996011;28;92327;-62
2022/09/29 00:59:39;;;;;;;2.28;2.17;;;;;;;;;;5010749;28;92291;-62
2022/09/29 01:02:05;;;;;;;3.42;2.20;;;;;;;;;;5018736;28;94179;-62
2022/09/29 01:04:31;;;;;;;2.47;2.22;;;;;;;;;;5016490;28;92758;-62
2022/09/29 01:06:58;;;;;;;2.05;1.90;;;;;;;;;;5013354;28;96028;-62
2022/09/29 01:09:26;;;;;;;2.00;1.90;;;;;;;;;;5016355;28;93051;-62
2022/09/29 01:11:56;;;;;;;2.00;1.90;;;;;;;;;;5016335;28;93131;-62
2022/09/29 01:14:24;;;;;;;2.38;2.28;;;;;;;;;;5015353;28;94009;-62
2022/09/29 01:16:50;;;;;;;2.10;1.95;;;;;;;;;;5017101;28;92396;-62
2022/09/29 01:19:33;;;;;;;2.75;2.05;;;;;;;;;;5015982;28;92887;-62
2022/09/29 01:21:59;;;;;;;;;;;;;;;;;;5015071;28;93303;-62
2022/09/29 01:24:41;;;;;;;2.22;2.13;;;;;;;;;;5019835;28;118186;-62
2022/09/29 01:27:36;;;;;;;1.85;1.75;;;;;;;;;;5014564;28;93384;-62
2022/09/29 01:30:03;;;;;;;2.45;2.30;;;;;;;;;;5006412;28;92504;-62
2022/09/29 01:32:40;;;;;;;3.40;1.95;;;;;;;;;;5015026;28;94804;-62
2022/09/29 01:35:12;;;;;;;1.98;1.88;;;;;;;;;;5013650;28;93849;-62
2022/09/29 01:37:48;;;;;;;2.25;2.15;;;;;;;;;;5015978;28;92312;-62
2022/09/29 01:40:21;;;;;;;1.92;1.83;;;;;;;;;;5015656;28;93080;-62
2022/09/29 01:42:56;;;;;;;1.90;1.80;;;;;;;;;;5015478;28;93629;-62
2022/09/29 01:45:22;;;;;;;2.20;2.10;;;;;;;;;;5015990;28;92418;-62
2022/09/29 01:47:52;;;;;;;1.85;1.70;;;;;;;;;;5018780;28;92352;-62
2022/09/29 01:50:26;;;;;;;1.83;1.73;;;;;;;;;;5015899;28;91724;-62
2022/09/29 01:52:56;;;;;;;2.17;2.08;;;;;;;;;;5014869;28;93048;-62
2022/09/29 01:55:24;;;;;;;2.20;2.10;;;;;;;;;;5014267;28;93504;-62
2022/09/29 01:57:59;;;;;;;2.10;2.00;;;;;;;;;;5013986;28;94788;-62
2022/09/29 02:00:30;;;;;;;3.05;1.90;;;;;;;;;;5015541;28;95112;-62
2022/09/29 02:03:05;;;;;;;2.30;2.20;;;;;;;;;;5013751;28;93536;-62
2022/09/29 02:05:31;;;;;;;2.20;2.10;;;;;;;;;;5015459;28;92411;-62
2022/09/29 02:08:01;;;;;;;4.05;1.90;;;;;;;;;;5015658;28;93003;-62
2022/09/29 02:10:31;;;;;;;2.20;2.10;;;;;;;;;;5017448;28;93326;-62
2022/09/29 02:12:58;;;;;;;2.00;1.90;;;;;;;;;;5015284;28;93768;-62
2022/09/29 02:15:27;;;;;;;2.13;2.03;;;;;;;;;;5015231;28;92573;-62
2022/09/29 02:17:55;;;;;;;2.10;1.90;;;;;;;;;;5014151;28;92917;-62
2022/09/29 02:20:23;;;;;;;1.88;1.77;;;;;;;;;;5015425;28;92712;-62
2022/09/29 02:22:49;;;;;;;2.10;2.00;;;;;;;;;;5013186;28;96341;-62
2022/09/29 02:25:17;;;;;;;2.22;2.13;;;;;;;;;;5014240;28;92538;-62
2022/09/29 02:27:46;;;;;;;2.15;2.00;;;;;;;;;;5014622;28;93044;-62
2022/09/29 02:30:12;;;;;;;2.17;2.08;;;;;;;;;;5013905;28;93727;-62
2022/09/29 02:32:39;;;;;;;1.95;1.80;;;;;;;;;;5017965;28;92426;-62
2022/09/29 02:35:07;;;;;;;2.40;2.10;;;;;;;;;;5014044;28;93455;-62
2022/09/29 02:37:33;;;;;;;2.00;1.90;;;;;;;;;;5014401;28;92500;-62
2022/09/29 02:40:15;;;;;;;2.00;1.90;;;;;;;;;;5015315;28;92898;-62
2022/09/29 02:42:50;;;;;;;1.90;1.80;;;;;;;;;;4994747;28;93121;-61
2022/09/29 02:45:32;;;;;;;2.20;2.10;;;;;;;;;;4993350;28;92759;-62
2022/09/29 02:48:04;;;;;;;2.00;1.90;;;;;;;;;;4993389;28;94867;-62
2022/09/29 02:50:39;;;;;;;2.10;2.00;;;;;;;;;;4994709;28;92445;-62
2022/09/29 02:53:16;;;;;;;2.60;2.08;;;;;;;;;;5009182;28;92582;-62
2022/09/29 02:55:48;;;;;;;2.10;1.90;;;;;;;;;;5014603;28;94211;-62
2022/09/29 02:58:20;;;;;;;2.10;2.00;;;;;;;;;;5024052;28;92533;-62
2022/09/29 03:00:47;;;;;;;2.10;2.00;;;;;;;;;;5034975;28;93841;-62
2022/09/29 03:03:13;;;;;;;2.00;1.90;;;;;;;;;;5034040;28;94325;-62
2022/09/29 03:05:40;;;;;;;2.00;1.90;;;;;;;;;;5035587;27;91660;-62
2022/09/29 03:08:06;;;;;;;3.83;1.90;;;;;;;;;;5038183;28;93249;-62
2022/09/29 03:10:32;;;;;;;1.90;1.80;;;;;;;;;;5037988;27;93948;-62
2022/09/29 03:12:58;;;;;;;2.20;2.10;;;;;;;;;;5035264;27;94811;-62
2022/09/29 03:15:25;;;;;;;2.10;2.00;;;;;;;;;;5040541;27;95455;-62
2022/09/29 03:17:53;;;;;;;1.90;1.80;;;;;;;;;;5038002;27;92864;-62
2022/09/29 03:20:20;;;;;;;2.10;2.00;;;;;;;;;;5036884;28;93095;-62
2022/09/29 03:22:46;;;;;;;2.10;2.00;;;;;;;;;;5027350;27;93835;-62
2022/09/29 03:25:13;;;;;;;1.70;1.60;;;;;;;;;;5017027;28;92420;-62
2022/09/29 03:27:40;;;;;;;4.10;1.70;;;;;;;;;;5017580;28;92934;-62
2022/09/29 03:30:07;;;;;;;1.83;1.73;;;;;;;;;;5017721;28;92591;-62
2022/09/29 03:32:33;;;;;;;2.15;2.03;;;;;;;;;;5030404;28;92579;-62
2022/09/29 03:34:59;;;;;;;2.10;2.00;;;;;;;;;;5032477;28;92941;-62
2022/09/29 03:37:26;;;;;;;2.22;2.13;;;;;;;;;;5019171;28;96661;-61
2022/09/29 03:39:52;;;;;;;1.92;1.83;;;;;;;;;;5017149;28;96429;-62
2022/09/29 03:42:21;;;;;;;2.08;1.90;;;;;;;;;;5016115;28;94121;-62
2022/09/29 03:44:47;;;;;;;2.03;1.92;;;;;;;;;;5017736;28;92961;-62
2022/09/29 03:47:14;;;;;;;2.00;1.90;;;;;;;;;;5017331;28;93675;-62
2022/09/29 03:49:40;;;;;;;2.10;2.00;;;;;;;;;;5016740;28;93328;-61
2022/09/29 03:52:06;;;;;;;2.00;1.90;;;;;;;;;;5017106;28;92540;-61
2022/09/29 03:54:33;;;;;;;1.85;1.75;;;;;;;;;;5017471;28;92930;-62
2022/09/29 03:56:59;;;;;;;2.03;1.92;;;;;;;;;;5016710;28;93328;-62
2022/09/29 03:59:25;;;;;;;3.25;2.10;;;;;;;;;;5020475;28;92417;-62
2022/09/29 04:01:51;;;;;;;1.90;1.80;;;;;;;;;;5013563;28;95720;-62
2022/09/29 04:04:18;;;;;;;1.95;1.85;;;;;;;;;;5016087;28;92512;-62
2022/09/29 04:06:44;;;;;;;1.90;1.80;;;;;;;;;;5030006;28;93690;-62
2022/09/29 04:09:10;;;;;;;1.75;1.65;;;;;;;;;;5034804;27;92472;-61
2022/09/29 04:11:37;;;;;;;1.95;1.85;;;;;;;;;;5015840;28;92497;-62
2022/09/29 04:14:03;;;;;;;1.98;1.80;;;;;;;;;;5015593;28;92905;-61
2022/09/29 04:16:30;;;;;;;1.85;1.75;;;;;;;;;;5014201;28;93282;-61
2022/09/29 04:18:56;;;;;;;2.00;1.90;;;;;;;;;;5016160;28;91724;-61
2022/09/29 04:21:22;;;;;;;1.90;1.80;;;;;;;;;;5019268;28;92434;-61
2022/09/29 04:23:49;;;;;;;2.10;2.00;;;;;;;;;;5030085;28;92444;-61
2022/09/29 04:26:16;;;;;;;1.80;1.70;;;;;;;;;;5033968;27;94774;-62
2022/09/29 04:28:42;;;;;;;2.05;1.95;;;;;;;;;;5035556;28;93086;-62
2022/09/29 04:31:08;;;;;;;1.75;1.65;;;;;;;;;;5029213;28;92372;-61
2022/09/29 04:33:35;;;;;;;2.33;1.92;;;;;;;;;;4996860;27;92783;-61
2022/09/29 04:36:01;;;;;;;1.90;1.80;;;;;;;;;;4995653;28;93406;-61
2022/09/29 04:38:28;;;;;;;1.92;1.80;;;;;;;;;;4995796;27;92390;-62
2022/09/29 04:40:54;;;;;;;2.17;2.08;;;;;;;;;;5013270;28;93850;-61
2022/09/29 04:43:21;;;;;;;2.30;2.10;;;;;;;;;;5019171;28;94089;-62
2022/09/29 04:45:47;;;;;;;2.58;2.10;;;;;;;;;;5014759;28;93181;-62
2022/09/29 04:48:14;;;;;;;2.13;2.03;;;;;;;;;;5015137;28;92249;-61
2022/09/29 04:50:40;;;;;;;2.17;2.08;;;;;;;;;;5013604;28;94865;-61
2022/09/29 04:53:06;;;;;;;2.08;1.98;;;;;;;;;;5014283;28;96652;-61
2022/09/29 04:55:33;;;;;;;2.55;2.00;;;;;;;;;;5015151;28;93156;-61
2022/09/29 04:58:00;;;;;;;1.90;1.80;;;;;;;;;;5014818;28;92402;-62
2022/09/29 05:00:26;;;;;;;1.80;1.75;;;;;;;;;;5015573;28;94247;-61
2022/09/29 05:02:52;;;;;;;2.05;1.95;;;;;;;;;;4978919;28;1115907;-61
2022/09/29 05:05:19;;;;;;;2.25;2.15;;;;;;;;;;5015203;28;92388;-61
2022/09/29 05:07:46;;;;;;;2.42;2.22;;;;;;;;;;5016209;28;92653;-61
2022/09/29 05:10:13;;;;;;;2.22;2.03;;;;;;;;;;5015634;28;92504;-61
2022/09/29 05:12:39;;;;;;;2.13;2.03;;;;;;;;;;5015382;28;93098;-61
2022/09/29 05:15:06;;;;;;;2.40;2.30;;;;;;;;;;5014678;28;96555;-61
2022/09/29 05:17:33;;;;;;;2.15;2.05;;;;;;;;;;5015682;28;92545;-61
2022/09/29 05:19:59;;;;;;;2.35;2.20;;;;;;;;;;5015542;28;92322;-61
2022/09/29 05:22:26;;;;;;;2.33;2.13;;;;;;;;;;5016189;28;93773;-61
2022/09/29 05:24:52;;;;;;;2.00;1.90;;;;;;;;;;5019375;28;92577;-61
2022/09/29 05:27:19;;;;;;;2.08;1.98;;;;;;;;;;5014623;28;93225;-61
2022/09/29 05:29:45;;;;;;;2.38;2.25;;;;;;;;;;5014962;28;92446;-61
2022/09/29 05:32:11;;;;;;;2.03;1.92;;;;;;;;;;5016574;28;92964;-61
2022/09/29 05:34:38;;;;;;;3.67;1.95;;;;;;;;;;5015086;28;93093;-61
2022/09/29 05:37:04;;;;;;;2.40;2.30;;;;;;;;;;5015671;28;92420;-61
2022/09/29 05:39:33;;;;;;;2.47;2.38;;;;;;;;;;5014191;28;94725;-61
2022/09/29 05:42:01;;;;;;;4.18;2.20;;;;;;;;;;5014268;28;93537;-61
2022/09/29 05:44:27;;;;;;;2.17;2.08;;;;;;;;;;5015519;28;92443;-61
2022/09/29 05:46:54;;;;;;;5.10;2.42;;;;;;;;;;5018301;28;94119;-61
2022/09/29 05:49:20;;;;;;;2.53;2.33;;;;;;;;;;5033525;27;92471;-61
2022/09/29 05:51:46;;;;;;;2.58;2.47;;;;;;;;;;5026236;28;93910;-61
2022/09/29 05:54:13;;;;;;;2.60;2.40;;;;;;;;;;5014599;28;93180;-61
2022/09/29 05:56:39;;;;;;;2.55;2.33;;;;;;;;;;5015945;28;91702;-61
2022/09/29 05:59:10;;;;;;;2.20;2.10;;;;;;;;;;5015397;28;93176;-61
2022/09/29 06:01:37;;;;;;;2.92;2.13;;;;;;;;;;5013937;28;94215;-62
2022/09/29 06:04:03;;;;;;;2.53;2.33;;;;;;;;;;5022856;28;94902;-61
2022/09/29 06:06:29;;;;;;;2.80;2.70;;;;;;;;;;5006663;28;95339;-61
2022/09/29 06:08:56;;;;;;;2.20;2.10;;;;;;;;;;4999130;28;94093;-61
2022/09/29 06:11:24;;;;;;;2.47;2.28;;;;;;;;;;5014783;28;93039;-61
2022/09/29 06:13:51;;;;;;;2.88;2.67;;;;;;;;;;5012802;28;93715;-61
2022/09/29 06:16:19;;;;;;;2.85;2.67;;;;;;;;;;5014184;28;92505;-61
2022/09/29 06:18:46;;;;;;;2.65;2.55;;;;;;;;;;5013796;28;93068;-61
2022/09/29 06:21:13;;;;;;;2.60;2.40;;;;;;;;;;5013608;28;92686;-61
2022/09/29 06:23:40;;;;;;;2.58;2.47;;;;;;;;;;5011146;28;92469;-61
2022/09/29 06:26:08;;;;;;;2.88;2.67;;;;;;;;;;5026367;28;93157;-61
2022/09/29 06:28:34;;;;;;;2.97;2.70;;;;;;;;;;5010111;28;96599;-61
2022/09/29 06:31:02;;;;;;;7.22;2.60;;;;;;;;;;5012967;28;93795;-61
2022/09/29 06:33:29;;;;;;;3.30;3.10;;;;;;;;;;4996603;28;93416;-61
2022/09/29 06:38:41;;;;;;;2.60;2.50;;;;;;;;;;5004446;28;94006;-61
2022/09/29 06:41:08;;;;;;;3.85;2.75;;;;;;;;;;4998184;28;94075;-61
2022/09/29 06:43:34;;;;;;;2.80;2.63;;;;;;;;;;5003264;28;92531;-61
2022/09/29 06:46:01;;;;;;;5.68;3.40;;;;;;;;;;5013001;28;93339;-61
2022/09/29 06:48:28;;;;;;;4.50;2.72;;;;;;;;;;5014664;28;94144;-61
2022/09/29 06:50:55;;;;;;;2.70;2.60;;;;;;;;;;5014016;28;92938;-61
2022/09/29 06:53:35;;;;;;;2.80;2.70;;;;;;;;;;5014947;28;94817;-61
2022/09/29 06:56:04;;;;;;;3.20;3.00;;;;;;;;;;5007167;28;92824;-61
2022/09/29 06:58:30;;;;;;;2.65;2.55;;;;;;;;;;4997948;28;94035;-61
2022/09/29 07:01:00;;;;;;;2.88;2.67;;;;;;;;;;5000102;28;94324;-61
2022/09/29 07:03:27;;;;;;;3.05;2.83;;;;;;;;;;5001358;28;92624;-62
2022/09/29 07:05:55;;;;;;;2.90;2.80;;;;;;;;;;5002099;28;93598;-61
2022/09/29 07:08:41;;;;;;;2.88;2.75;;;;;;;;;;5009722;28;93087;-62
2022/09/29 07:11:08;;;;;;;3.20;3.00;;;;;;;;;;5013142;28;91722;-62
2022/09/29 07:13:35;;;;;;;2.53;2.42;;;;;;;;;;5007617;28;92340;-61
2022/09/29 07:16:08;;;;;;;2.78;2.58;;;;;;;;;;5011730;28;92501;-61
2022/09/29 07:18:36;;;;;;;3.13;2.92;;;;;;;;;;5015093;27;94852;-62
2022/09/29 07:21:03;;;;;;;3.30;3.00;;;;;;;;;;5011822;28;93622;-61
2022/09/29 07:23:30;;;;;;;3.28;3.08;;;;;;;;;;4993314;28;94240;-62
2022/09/29 07:25:56;;;;;;;3.33;3.00;;;;;;;;;;5019665;28;93327;-61
2022/09/29 07:28:23;;;;;;;3.30;3.10;;;;;;;;;;5011957;28;93431;-61
2022/09/29 07:31:03;;;;;;;3.17;3.03;;;;;;;;;;4993813;28;92529;-63
2022/09/29 07:33:39;;;;;;;3.45;3.25;;;;;;;;;;5009352;28;93204;-62
2022/09/29 07:36:06;;;;;;;5.38;3.35;;;;;;;;;;5016208;28;91750;-62
2022/09/29 07:38:33;;;;;;;4.38;3.22;;;;;;;;;;5000127;28;92953;-61
2022/09/29 07:41:01;;;;;;;3.42;3.13;;;;;;;;;;5003511;28;93323;-62
2022/09/29 07:43:28;;;;;;;3.63;3.42;;;;;;;;;;4994430;28;95458;-61
2022/09/29 07:45:55;;;;;;;3.78;3.42;;;;;;;;;;5012046;28;95664;-62
2022/09/29 07:48:21;;;;;;;3.75;3.45;;;;;;;;;;4996764;28;93621;-62
2022/09/29 07:50:48;;;;;;;4.15;3.50;;;;;;;;;;5012275;28;92448;-62
2022/09/29 07:53:14;;;;;;;3.92;3.35;;;;;;;;;;4995525;28;93230;-62
2022/09/29 07:55:40;;;;;;;3.40;3.20;;;;;;;;;;5010461;28;94143;-62
2022/09/29 07:58:07;;;;;;;3.95;3.47;;;;;;;;;;5008676;28;93043;-61
2022/09/29 08:00:34;;;;;;;3.42;3.22;;;;;;;;;;5005738;28;92696;-62
2022/09/29 08:03:05;;;;;;;4.18;3.88;;;;;;;;;;5010610;28;92926;-61
2022/09/29 08:05:32;;;;;;;4.13;3.92;;;;;;;;;;5013721;28;93177;-62
2022/09/29 08:08:00;;;;;;;5.35;4.43;;;;;;;;;;5008743;28;95697;-61
2022/09/29 08:10:27;;;;;;;5.10;4.70;;;;;;;;;;4997112;28;92894;-61
2022/09/29 08:12:54;;;;;;;4.40;4.13;;;;;;;;;;5006821;28;93819;-62
2022/09/29 08:15:20;;;;;;;14.13;8.98;;;;;;;;;;5008138;28;94363;-61
2022/09/29 08:17:47;;;;;;;6.50;6.00;;;;;;;;;;5007898;27;92537;-62
2022/09/29 08:20:13;;;;;;;6.13;5.63;;;;;;;;;;5005017;28;93782;-62
2022/09/29 08:22:40;;;;;;;7.03;6.18;;;;;;;;;;5007477;28;92641;-61
2022/09/29 08:25:07;;;;;;;6.45;6.05;;;;;;;;;;5015085;28;93078;-62
2022/09/29 08:27:33;;;;;;;6.80;6.20;;;;;;;;;;5006833;28;94396;-61
2022/09/29 08:30:02;;;;;;;7.32;6.32;;;;;;;;;;5014385;28;92500;-62
2022/09/29 08:32:28;;;;;;;6.65;6.05;;;;;;;;;;5011099;28;94761;-61
2022/09/29 08:34:54;;;;;;;6.43;5.82;;;;;;;;;;5004819;28;94069;-62
2022/09/29 08:37:21;;;;;;;7.65;5.88;;;;;;;;;;5009773;28;93472;-62
2022/09/29 08:39:47;;;;;;;6.70;6.20;;;;;;;;;;5018177;28;92830;-62
2022/09/29 08:42:36;;;;;;;6.72;6.13;;;;;;;;;;5013803;28;94177;-62
2022/09/29 08:45:24;;;;;;;7.15;6.55;;;;;;;;;;4998718;28;92943;-62
2022/09/29 08:47:51;;;;;;;7.72;6.10;;;;;;;;;;4996394;28;92249;-62
2022/09/29 08:50:23;;;;;;;7.57;6.93;;;;;;;;;;4995150;28;91737;-68
2022/09/29 08:52:52;;;;;;;7.28;6.78;;;;;;;;;;5007111;28;93643;-62
2022/09/29 08:55:18;;;;;;;7.50;6.90;;;;;;;;;;5007714;28;94198;-62
2022/09/29 08:57:50;;;;;;;7.90;7.20;;;;;;;;;;4999967;28;95350;-62
2022/09/29 09:00:17;;;;;;;8.13;6.93;;;;;;;;;;5012100;28;95342;-62
2022/09/29 09:03:09;;;;;;;8.07;7.28;;;;;;;;;;5016390;28;94370;-61
2022/09/29 09:05:39;;;;;;;12.05;6.80;;;;;;;;;;5002082;28;93197;-60
2022/09/29 09:08:25;;;;;;;13.77;7.70;;;;;;;;;;4996681;28;93276;-60
2022/09/29 09:11:24;;;;;;;10.02;8.38;;;;;;;;;;5001374;28;93133;-64
2022/09/29 09:14:09;;;;;;;9.30;7.13;;;;;;;;;;4976258;28;93063;-64
2022/09/29 09:16:46;;;;;;;13.45;11.20;;;;;;;;;;5001626;28;92867;-62
2022/09/29 09:19:15;;;;;;;13.10;8.65;;;;;;;;;;5011420;28;92398;-64
2022/09/29 09:21:43;;;;;;;15.30;9.07;;;;;;;;;;5015663;28;93277;-63
2022/09/29 09:24:20;;;;;;;10.27;9.00;;;;;;;;;;5012878;28;95777;-64
2022/09/29 09:26:50;;;;;;;10.10;9.20;;;;;;;;;;5018040;28;92388;-64
2022/09/29 09:29:24;;;;;;;10.30;9.40;;;;;;;;;;5008571;28;93842;-63
2022/09/29 09:31:53;;;;;;;10.25;9.23;;;;;;;;;;4994680;28;93294;-64
2022/09/29 09:34:22;;;;;;;10.48;9.48;;;;;;;;;;4999213;28;93115;-64
2022/09/29 09:37:25;;;;;;;13.32;10.68;;;;;;;;;;4995281;28;93397;-64
2022/09/29 09:39:51;;;;;;;10.07;9.27;;;;;;;;;;4994678;28;92427;-64
2022/09/29 09:42:21;;;;;;;10.73;9.82;;;;;;;;;;4999636;28;93104;-64
2022/09/29 09:44:57;;;;;;;11.75;10.75;;;;;;;;;;5001986;28;93357;-64
2022/09/29 09:47:25;;;;;;;11.05;10.05;;;;;;;;;;5000291;28;92526;-64
2022/09/29 09:49:55;;;;;;;11.48;10.38;;;;;;;;;;5008434;28;95012;-64
2022/09/29 09:52:43;;;;;;;12.23;10.48;;;;;;;;;;5005299;28;92467;-65
2022/09/29 09:55:14;;;;;;;10.82;9.70;;;;;;;;;;5009688;28;94024;-64
2022/09/29 09:57:43;;;;;;;25.85;19.05;;;;;;;;;;5009657;28;94203;-63
2022/09/29 10:00:11;;;;;;;26.55;21.77;;;;;;;;;;5012054;28;93624;-59
2022/09/29 10:02:45;;;;;;;24.73;22.17;;;;;;;;;;5010011;28;93145;-60
2022/09/29 10:05:13;;;;;;;26.75;21.55;;;;;;;;;;5012597;28;94120;-62
2022/09/29 10:07:40;;;;;;;25.55;22.77;;;;;;;;;;5013634;28;91862;-61
2022/09/29 10:10:16;;;;;;;21.10;16.80;;;;;;;;;;5013382;27;92357;-60
2022/09/29 10:12:42;;;;;;;23.58;17.75;;;;;;;;;;5005718;28;93395;-61
2022/09/29 10:15:16;;;;;;;20.02;17.83;;;;;;;;;;4988605;28;94911;-60
2022/09/29 10:17:45;;;;;;;21.30;19.20;;;;;;;;;;4995086;28;94119;-60
2022/09/29 10:20:11;;;;;;;23.25;20.77;;;;;;;;;;5006094;28;92632;-60
2022/09/29 10:22:38;;;;;;;23.23;20.73;;;;;;;;;;4998727;28;93787;-60
2022/09/29 10:25:07;;;;;;;25.05;20.95;;;;;;;;;;4993629;28;93329;-60
2022/09/29 10:27:34;;;;;;;22.65;20.40;;;;;;;;;;4998899;28;93419;-60
2022/09/29 10:30:01;;;;;;;24.85;20.60;;;;;;;;;;4993780;28;93163;-60
2022/09/29 10:32:37;;;;;;;25.35;20.98;;;;;;;;;;5005236;28;93574;-60
2022/09/29 10:35:06;;;;;;;25.75;21.42;;;;;;;;;;4995525;28;92664;-60
2022/09/29 10:37:35;;;;;;;24.92;22.40;;;;;;;;;;4996530;28;93393;-60
2022/09/29 10:40:12;;;;;;;25.83;21.08;;;;;;;;;;4992432;28;94879;-60
2022/09/29 10:42:39;;;;;;;24.73;22.33;;;;;;;;;;4997516;28;95390;-60
2022/09/29 10:45:06;;;;;;;25.08;22.55;;;;;;;;;;5013138;28;93803;-60
2022/09/29 10:47:33;;;;;;;23.95;21.45;;;;;;;;;;5013533;28;92588;-60
2022/09/29 10:50:19;;;;;;;29.90;23.02;;;;;;;;;;5012413;28;93354;-60
2022/09/29 10:52:51;;;;;;;24.20;21.35;;;;;;;;;;5013655;28;93257;-60
2022/09/29 10:55:19;;;;;;;25.58;23.00;;;;;;;;;;5005884;28;92496;-62
2022/09/29 10:57:47;;;;;;;22.23;20.02;;;;;;;;;;4995504;28;93031;-60
2022/09/29 11:00:33;;;;;;;24.13;21.63;;;;;;;;;;4998756;28;92519;-59
2022/09/29 11:03:20;;;;;;;23.77;21.48;;;;;;;;;;4997866;28;93208;-59
2022/09/29 11:05:50;;;;;;;23.23;20.73;;;;;;;;;;5003725;28;95874;-59
2022/09/29 11:08:18;;;;;;;22.58;20.35;;;;;;;;;;5010024;28;92525;-60
2022/09/29 11:10:45;;;;;;;23.30;20.75;;;;;;;;;;5010279;28;92888;-60
2022/09/29 11:13:23;;;;;;;25.45;20.67;;;;;;;;;;5011858;28;92432;-60
2022/09/29 11:15:50;;;;;;;23.25;20.55;;;;;;;;;;5012176;28;92431;-59
2022/09/29 11:18:18;;;;;;;21.45;19.20;;;;;;;;;;5014943;28;93054;-60
2022/09/29 11:20:47;;;;;;;21.80;19.55;;;;;;;;;;5012759;28;92481;-60
2022/09/29 11:23:23;;;;;;;22.02;19.10;;;;;;;;;;5010207;28;93061;-59
2022/09/29 11:25:55;;;;;;;21.55;18.70;;;;;;;;;;5012071;28;93605;-60
2022/09/29 11:28:39;;;;;;;21.40;17.25;;;;;;;;;;5016428;28;92533;-60
2022/09/29 11:31:24;;;;;;;19.42;17.33;;;;;;;;;;5013204;28;94902;-60
2022/09/29 11:34:02;;;;;;;18.48;16.63;;;;;;;;;;5012427;28;93638;-60
2022/09/29 11:36:41;;;;;;;20.10;16.95;;;;;;;;;;5004216;28;92526;-60
2022/09/29 11:39:28;;;;;;;18.40;16.50;;;;;;;;;;5001089;28;92805;-60
2022/09/29 11:42:09;;;;;;;18.95;15.60;;;;;;;;;;5017274;28;93670;-60
2022/09/29 11:44:35;;;;;;;16.50;14.85;;;;;;;;;;5007907;28;93317;-60
2022/09/29 11:47:09;;;;;;;20.67;15.77;;;;;;;;;;5012384;28;93387;-59
2022/09/29 11:51:07;;;;;;;27.95;15.20;;;;;;;;;;5073413;27;87699;-65
2022/09/29 11:53:43;;;;;;;16.50;13.73;;;;;;;;;;5070602;27;89056;-62
2022/09/29 11:56:13;;;;;;;17.88;14.10;;;;;;;;;;5070465;27;89527;-62
2022/09/29 11:58:40;;;;;;;16.08;14.38;;;;;;;;;;5073985;27;89296;-62
2022/09/29 12:01:21;;;;;;;15.98;13.40;;;;;;;;;;5068609;27;90811;-62
2022/09/29 12:04:06;;;;;;;15.82;14.23;;;;;;;;;;5060057;27;92275;-62
2022/09/29 12:06:41;;;;;;;15.10;12.20;;;;;;;;;;5065464;27;89124;-62
2022/09/29 12:09:10;;;;;;;15.10;12.90;;;;;;;;;;5070793;27;90015;-62
2022/09/29 12:11:39;;;;;;;21.75;14.00;;;;;;;;;;5070544;27;90354;-62
2022/09/29 12:14:33;;;;;;;15.55;13.20;;;;;;;;;;5070411;27;90289;-63
2022/09/29 12:17:11;;;;;;;14.93;13.35;;;;;;;;;;5073994;27;89484;-63
2022/09/29 12:19:38;;;;;;;13.90;12.57;;;;;;;;;;5074590;27;89062;-63
2022/09/29 12:22:07;;;;;;;13.95;12.65;;;;;;;;;;5073106;27;90014;-63
2022/09/29 12:24:36;;;;;;;13.77;12.40;;;;;;;;;;5073404;27;90240;-63
2022/09/29 12:27:05;;;;;;;13.20;11.52;;;;;;;;;;5073541;27;88808;-63
2022/09/29 12:29:33;;;;;;;12.98;11.77;;;;;;;;;;5072796;27;89956;-62
2022/09/29 12:32:03;;;;;;;16.27;11.50;;;;;;;;;;5073048;27;90427;-63
2022/09/29 12:34:32;;;;;;;12.13;10.95;;;;;;;;;;5076276;27;89383;-63
2022/09/29 12:37:06;;;;;;;11.63;10.50;;;;;;;;;;5073072;27;90305;-62
2022/09/29 12:39:44;;;;;;;11.70;10.57;;;;;;;;;;5073527;27;89021;-63
2022/09/29 12:42:20;;;;;;;11.73;10.68;;;;;;;;;;5072142;27;90192;-62
2022/09/29 12:44:47;;;;;;;10.30;9.20;;;;;;;;;;5072871;27;90393;-63
2022/09/29 12:47:28;;;;;;;11.43;10.23;;;;;;;;;;5074249;27;87796;-62
2022/09/29 12:50:24;;;;;;;9.95;8.95;;;;;;;;;;5071909;27;89614;-62
2022/09/29 12:52:54;;;;;;;11.00;10.07;;;;;;;;;;5064633;27;87599;-63
2022/09/29 12:55:29;;;;;;;10.30;9.25;;;;;;;;;;5072606;27;89004;-63
2022/09/29 12:57:57;;;;;;;10.85;9.85;;;;;;;;;;5077091;27;90243;-62
2022/09/29 13:00:24;;;;;;;11.18;10.18;;;;;;;;;;5071824;27;87234;-63
2022/09/29 13:03:05;;;;;;;9.88;8.98;;;;;;;;;;5059070;27;88871;-62
2022/09/29 13:05:50;;;;;;;8.63;7.88;;;;;;;;;;5040224;27;86857;-62
2022/09/29 13:08:22;;;;;;;8.65;7.78;;;;;;;;;;5040015;28;87384;-63
2022/09/29 13:10:54;;;;;;;9.02;8.23;;;;;;;;;;5039752;27;87871;-65
2022/09/29 13:13:21;;;;;;;;;;;;;;;;;;5040418;27;88787;-63
2022/09/29 13:15:50;;;;;;;8.10;7.40;;;;;;;;;;5040500;28;115237;-63
2022/09/29 13:18:16;;;;;;;8.25;7.43;;;;;;;;;;5039595;27;86943;-63
2022/09/29 13:21:02;;;;;;;7.85;7.25;;;;;;;;;;5042979;28;87933;-63
2022/09/29 13:23:30;;;;;;;8.15;7.35;;;;;;;;;;5040509;27;87685;-62
2022/09/29 13:25:59;;;;;;;7.38;6.55;;;;;;;;;;5039104;27;88122;-63
2022/09/29 13:28:35;;;;;;;7.07;6.57;;;;;;;;;;5040545;28;88298;-64
2022/09/29 13:31:03;;;;;;;6.47;5.97;;;;;;;;;;5040617;27;88816;-64
2022/09/29 13:33:30;;;;;;;6.53;6.13;;;;;;;;;;5047922;27;88034;-64
2022/09/29 13:35:56;;;;;;;6.68;6.18;;;;;;;;;;5060778;27;87380;-64
2022/09/29 13:38:24;;;;;;;6.50;6.07;;;;;;;;;;5059948;27;88949;-64
2022/09/29 13:41:09;;;;;;;5.70;5.30;;;;;;;;;;5060640;27;88167;-64
2022/09/29 13:43:41;;;;;;;6.85;6.20;;;;;;;;;;5063296;27;88371;-64
2022/09/29 13:46:26;;;;;;;6.80;6.07;;;;;;;;;;5059000;27;87011;-64
2022/09/29 13:49:01;;;;;;;7.00;6.40;;;;;;;;;;5059827;27;87503;-64
2022/09/29 13:51:40;;;;;;;6.50;6.03;;;;;;;;;;5060292;27;87851;-63
2022/09/29 13:54:26;;;;;;;6.80;6.18;;;;;;;;;;5057270;27;87101;-65
2022/09/29 13:57:04;;;;;;;6.50;5.30;;;;;;;;;;5060851;27;88158;-64
2022/09/29 13:59:31;;;;;;;6.28;5.78;;;;;;;;;;5058658;27;87590;-65
2022/09/29 14:01:58;;;;;;;5.07;4.68;;;;;;;;;;5039289;28;88087;-64
2022/09/29 14:04:48;;;;;;;5.70;5.28;;;;;;;;;;5054906;27;87508;-64
2022/09/29 14:07:33;;;;;;;5.18;4.78;;;;;;;;;;5035322;28;86971;-64
2022/09/29 14:10:04;;;;;;;6.15;4.65;;;;;;;;;;5039196;27;87138;-63
2022/09/29 14:12:33;;;;;;;5.28;4.88;;;;;;;;;;5048895;27;86766;-64
2022/09/29 14:14:59;;;;;;;4.35;4.05;;;;;;;;;;5058428;27;88072;-63
2022/09/29 14:17:30;;;;;;;5.40;4.90;;;;;;;;;;5059539;27;88476;-63
2022/09/29 14:20:16;;;;;;;4.97;4.68;;;;;;;;;;5059406;27;86686;-63
2022/09/29 14:22:42;;;;;;;4.50;4.18;;;;;;;;;;5058857;27;86996;-63
2022/09/29 14:25:11;;;;;;;4.93;4.53;;;;;;;;;;5058563;27;87326;-63
2022/09/29 14:27:38;;;;;;;4.68;4.28;;;;;;;;;;5061194;27;87918;-63
2022/09/29 14:30:18;;;;;;;5.43;4.07;;;;;;;;;;5058259;27;87131;-64
2022/09/29 14:32:51;;;;;;;4.38;4.07;;;;;;;;;;5059592;27;87752;-63
2022/09/29 14:35:33;;;;;;;4.40;4.10;;;;;;;;;;5057999;27;87034;-64
2022/09/29 14:38:00;;;;;;;;;;;;;;;;;;5058796;27;87325;-63
2022/09/29 14:40:29;;;;;;;4.28;3.97;;;;;;;;;;5060640;27;88944;-63
2022/09/29 14:43:13;;;;;;;3.88;3.58;;;;;;;;;;5058700;27;87235;-63
2022/09/29 14:51:58;;;;;;;3.58;3.38;;;;;;;;;;5063030;27;87190;-63
2022/09/29 14:54:30;;;;;;;3.45;3.15;;;;;;;;;;5060035;27;87781;-64
2022/09/29 14:56:57;;;;;;;2.90;2.70;;;;;;;;;;5057613;27;88067;-63
2022/09/29 14:59:26;;;;;;;2.80;2.60;;;;;;;;;;5058446;27;87221;-63
2022/09/29 15:01:59;;;;;;;3.30;3.10;;;;;;;;;;5058113;27;87828;-63
2022/09/29 15:04:26;;;;;;;3.35;3.15;;;;;;;;;;5057287;27;86962;-63
2022/09/29 15:06:54;;;;;;;3.40;3.15;;;;;;;;;;5058549;27;87036;-63